createdAt,value
2018-05-14T00:00:06.530Z,1006.41
2018-05-14T00:01:15.176Z,1006.41
2018-05-14T00:02:24.089Z,1006.41
2018-05-14T00:03:32.736Z,1006.42
2018-05-14T00:04:41.671Z,1006.45
2018-05-14T00:05:50.311Z,1006.39
2018-05-14T00:06:58.966Z,1006.32
2018-05-14T00:08:07.604Z,1006.34
2018-05-14T00:09:16.253Z,1006.32
2018-05-14T00:10:24.908Z,1006.28
2018-05-14T00:11:33.823Z,1006.3
2018-05-14T00:12:42.473Z,1006.28
2018-05-14T00:13:51.122Z,1006.27
2018-05-14T00:14:59.765Z,1006.26
2018-05-14T00:16:08.410Z,1006.29
2018-05-14T00:17:17.324Z,1006.29
2018-05-14T00:18:25.965Z,1006.27
2018-05-14T00:19:34.612Z,1006.28
2018-05-14T00:20:43.257Z,1006.29
2018-05-14T00:21:51.909Z,1006.23
2018-05-14T00:23:00.549Z,1006.23
2018-05-14T00:24:09.195Z,1006.24
2018-05-14T00:25:17.839Z,1006.21
2018-05-14T00:26:26.488Z,1006.2
2018-05-14T00:27:35.131Z,1006.17
2018-05-14T00:28:43.777Z,1006.19
2018-05-14T00:29:52.419Z,1006.15
2018-05-14T00:31:01.330Z,1006.11
2018-05-14T00:32:09.980Z,1006.1
2018-05-14T00:33:18.625Z,1006.05
2018-05-14T00:34:27.270Z,1006.05
2018-05-14T00:35:35.914Z,1006.03
2018-05-14T00:36:44.567Z,1006
2018-05-14T00:37:53.210Z,1005.98
2018-05-14T00:39:01.855Z,1005.98
2018-05-14T00:40:10.497Z,1005.96
2018-05-14T00:41:19.147Z,1006
2018-05-14T00:42:27.791Z,1005.97
2018-05-14T00:43:36.731Z,1005.97
2018-05-14T00:44:45.349Z,1005.98
2018-05-14T00:45:53.997Z,1005.97
2018-05-14T00:47:02.640Z,1005.95
2018-05-14T00:48:11.288Z,1005.96
2018-05-14T00:49:19.997Z,1005.96
2018-05-14T00:50:28.576Z,1005.99
2018-05-14T00:51:37.220Z,1005.98
2018-05-14T00:52:45.867Z,1005.96
2018-05-14T00:53:54.514Z,1005.97
2018-05-14T00:55:03.155Z,1005.94
2018-05-14T00:56:11.801Z,1005.94
2018-05-14T00:57:20.445Z,1005.95
2018-05-14T00:58:29.098Z,1005.93
2018-05-14T00:59:38.006Z,1005.91
2018-05-14T01:00:46.657Z,1005.9
2018-05-14T01:01:55.296Z,1005.92
2018-05-14T01:03:03.955Z,1005.91
2018-05-14T01:04:12.588Z,1005.91
2018-05-14T01:05:21.233Z,1005.89
2018-05-14T01:06:29.929Z,1005.86
2018-05-14T01:07:38.520Z,1005.85
2018-05-14T01:08:47.440Z,1005.8
2018-05-14T01:09:56.083Z,1005.81
2018-05-14T01:11:04.729Z,1005.83
2018-05-14T01:12:13.369Z,1005.78
2018-05-14T01:13:22.285Z,1005.78
2018-05-14T01:14:31.200Z,1005.76
2018-05-14T01:15:40.124Z,1005.73
2018-05-14T01:16:49.026Z,1005.79
2018-05-14T01:17:57.681Z,1005.76
2018-05-14T01:19:06.318Z,1005.79
2018-05-14T01:20:14.966Z,1005.72
2018-05-14T01:21:23.610Z,1005.76
2018-05-14T01:22:32.258Z,1005.71
2018-05-14T01:23:40.904Z,1005.73
2018-05-14T01:24:49.553Z,1005.76
2018-05-14T01:25:58.199Z,1005.76
2018-05-14T01:27:06.845Z,1005.73
2018-05-14T01:28:16.136Z,1005.74
2018-05-14T01:29:24.664Z,1005.74
2018-05-14T01:30:33.314Z,1005.73
2018-05-14T01:31:42.215Z,1005.75
2018-05-14T01:32:50.862Z,1005.71
2018-05-14T01:33:59.506Z,1005.66
2018-05-14T01:35:08.158Z,1005.7
2018-05-14T01:36:16.797Z,1005.71
2018-05-14T01:37:25.447Z,1005.73
2018-05-14T01:38:34.088Z,1005.72
2018-05-14T01:39:42.740Z,1005.72
2018-05-14T01:40:51.384Z,1005.68
2018-05-14T01:42:00.029Z,1005.69
2018-05-14T01:43:08.673Z,1005.7
2018-05-14T01:44:17.322Z,1005.68
2018-05-14T01:45:25.969Z,1005.71
2018-05-14T01:46:34.617Z,1005.71
2018-05-14T01:47:43.263Z,1005.67
2018-05-14T01:48:51.908Z,1005.7
2018-05-14T01:50:00.818Z,1005.77
2018-05-14T01:51:09.463Z,1005.71
2018-05-14T01:52:18.396Z,1005.74
2018-05-14T01:53:27.043Z,1005.77
2018-05-14T01:54:35.688Z,1005.78
2018-05-14T01:55:44.333Z,1005.78
2018-05-14T01:56:52.981Z,1005.76
2018-05-14T01:58:01.623Z,1005.77
2018-05-14T01:59:10.531Z,1005.78
2018-05-14T02:00:19.180Z,1005.75
2018-05-14T02:01:27.827Z,1005.77
2018-05-14T02:02:36.480Z,1005.8
2018-05-14T02:03:45.115Z,1005.75
2018-05-14T02:04:53.765Z,1005.79
2018-05-14T02:06:02.407Z,1005.79
2018-05-14T02:07:11.061Z,1005.78
2018-05-14T02:08:19.703Z,1005.82
2018-05-14T02:09:28.622Z,1005.82
2018-05-14T02:10:37.256Z,1005.82
2018-05-14T02:11:45.912Z,1005.83
2018-05-14T02:12:54.548Z,1005.88
2018-05-14T02:14:03.200Z,1005.85
2018-05-14T02:15:11.844Z,1005.83
2018-05-14T02:16:20.761Z,1005.86
2018-05-14T02:17:29.665Z,1005.84
2018-05-14T02:18:38.306Z,1005.83
2018-05-14T02:19:46.949Z,1005.84
2018-05-14T02:20:55.591Z,1005.85
2018-05-14T02:22:04.247Z,1005.84
2018-05-14T02:23:12.891Z,1005.77
2018-05-14T02:24:21.539Z,1005.84
2018-05-14T02:25:30.445Z,1005.8
2018-05-14T02:26:39.099Z,1005.83
2018-05-14T02:27:47.737Z,1005.81
2018-05-14T02:28:56.386Z,1005.8
2018-05-14T02:30:05.023Z,1005.76
2018-05-14T02:31:14.046Z,1005.79
2018-05-14T02:32:22.961Z,1005.77
2018-05-14T02:33:31.612Z,1005.81
2018-05-14T02:34:40.258Z,1005.84
2018-05-14T02:35:48.896Z,1005.8
2018-05-14T02:36:57.551Z,1005.84
2018-05-14T02:38:06.471Z,1005.8
2018-05-14T02:39:15.388Z,1005.78
2018-05-14T02:40:24.292Z,1005.81
2018-05-14T02:41:33.483Z,1005.75
2018-05-14T02:42:42.127Z,1005.79
2018-05-14T02:43:50.783Z,1005.73
2018-05-14T02:44:59.428Z,1005.74
2018-05-14T02:46:08.081Z,1005.75
2018-05-14T02:47:17.286Z,1005.74
2018-05-14T02:48:25.944Z,1005.78
2018-05-14T02:49:34.585Z,1005.79
2018-05-14T02:50:43.237Z,1005.8
2018-05-14T02:51:52.158Z,1005.77
2018-05-14T02:53:01.078Z,1005.79
2018-05-14T02:54:09.994Z,1005.76
2018-05-14T02:55:18.647Z,1005.76
2018-05-14T02:56:27.567Z,1005.76
2018-05-14T02:57:36.308Z,1005.78
2018-05-14T02:58:44.856Z,1005.8
2018-05-14T02:59:53.517Z,1005.78
2018-05-14T03:01:02.158Z,1005.77
2018-05-14T03:02:11.084Z,1005.77
2018-05-14T03:03:19.989Z,1005.74
2018-05-14T03:04:29.172Z,1005.76
2018-05-14T03:05:38.078Z,1005.78
2018-05-14T03:06:47.148Z,1005.77
2018-05-14T03:07:55.984Z,1005.82
2018-05-14T03:09:04.903Z,1005.8
2018-05-14T03:10:13.645Z,1005.8
2018-05-14T03:11:22.495Z,1005.82
2018-05-14T03:12:31.151Z,1005.83
2018-05-14T03:13:39.801Z,1005.75
2018-05-14T03:14:48.436Z,1005.78
2018-05-14T03:15:57.084Z,1005.75
2018-05-14T03:17:05.753Z,1005.69
2018-05-14T03:18:14.393Z,1005.71
2018-05-14T03:19:23.041Z,1005.72
2018-05-14T03:20:31.677Z,1005.7
2018-05-14T03:21:40.334Z,1005.63
2018-05-14T03:22:48.972Z,1005.68
2018-05-14T03:23:57.621Z,1005.63
2018-05-14T03:25:06.260Z,1005.62
2018-05-14T03:26:15.258Z,1005.65
2018-05-14T03:27:23.818Z,1005.67
2018-05-14T03:28:32.466Z,1005.65
2018-05-14T03:29:41.101Z,1005.68
2018-05-14T03:30:49.751Z,1005.69
2018-05-14T03:31:58.667Z,1005.69
2018-05-14T03:33:07.315Z,1005.77
2018-05-14T03:34:15.963Z,1005.77
2018-05-14T03:35:24.600Z,1005.77
2018-05-14T03:36:33.525Z,1005.74
2018-05-14T03:37:42.433Z,1005.74
2018-05-14T03:38:51.087Z,1005.75
2018-05-14T03:39:59.722Z,1005.75
2018-05-14T03:41:08.371Z,1005.72
2018-05-14T03:42:17.010Z,1005.75
2018-05-14T03:43:25.663Z,1005.75
2018-05-14T03:44:34.301Z,1005.77
2018-05-14T03:45:43.212Z,1005.73
2018-05-14T03:46:51.854Z,1005.72
2018-05-14T03:48:00.514Z,1005.74
2018-05-14T03:49:09.158Z,1005.77
2018-05-14T03:50:17.797Z,1005.74
2018-05-14T03:51:26.444Z,1005.77
2018-05-14T03:52:35.350Z,1005.79
2018-05-14T03:53:44.004Z,1005.78
2018-05-14T03:54:52.647Z,1005.86
2018-05-14T03:56:01.293Z,1005.82
2018-05-14T03:57:09.932Z,1005.8
2018-05-14T03:58:18.583Z,1005.82
2018-05-14T03:59:27.233Z,1005.84
2018-05-14T04:00:35.885Z,1005.87
2018-05-14T04:01:44.526Z,1005.89
2018-05-14T04:02:53.177Z,1005.88
2018-05-14T04:04:01.820Z,1005.91
2018-05-14T04:05:10.467Z,1005.92
2018-05-14T04:06:19.118Z,1005.93
2018-05-14T04:07:27.761Z,1005.96
2018-05-14T04:08:36.410Z,1005.96
2018-05-14T04:09:45.057Z,1005.98
2018-05-14T04:10:53.702Z,1005.98
2018-05-14T04:12:02.350Z,1005.97
2018-05-14T04:13:11.270Z,1006
2018-05-14T04:14:19.905Z,1005.96
2018-05-14T04:15:28.821Z,1006.02
2018-05-14T04:16:37.485Z,1005.96
2018-05-14T04:17:46.107Z,1006.02
2018-05-14T04:18:54.755Z,1005.99
2018-05-14T04:20:03.672Z,1005.99
2018-05-14T04:21:12.308Z,1006.02
2018-05-14T04:22:20.956Z,1005.98
2018-05-14T04:23:29.599Z,1006
2018-05-14T04:24:38.252Z,1005.97
2018-05-14T04:25:46.893Z,1005.96
2018-05-14T04:26:55.541Z,1005.94
2018-05-14T04:28:04.179Z,1005.93
2018-05-14T04:29:12.822Z,1005.94
2018-05-14T04:30:21.802Z,1005.92
2018-05-14T04:31:30.389Z,1005.94
2018-05-14T04:32:39.034Z,1005.95
2018-05-14T04:33:47.677Z,1005.95
2018-05-14T04:34:56.326Z,1005.97
2018-05-14T04:36:04.973Z,1005.97
2018-05-14T04:37:13.619Z,1006
2018-05-14T04:38:22.260Z,1006.02
2018-05-14T04:39:31.173Z,1006.01
2018-05-14T04:40:39.817Z,1006.05
2018-05-14T04:41:48.496Z,1006.05
2018-05-14T04:42:57.113Z,1006.09
2018-05-14T04:44:05.775Z,1006.08
2018-05-14T04:45:14.420Z,1006.14
2018-05-14T04:46:23.087Z,1006.15
2018-05-14T04:47:31.713Z,1006.13
2018-05-14T04:48:40.355Z,1006.13
2018-05-14T04:49:49.002Z,1006.12
2018-05-14T04:50:57.650Z,1006.16
2018-05-14T04:52:06.288Z,1006.12
2018-05-14T04:53:14.948Z,1006.16
2018-05-14T04:54:23.853Z,1006.15
2018-05-14T04:55:32.503Z,1006.1
2018-05-14T04:56:41.143Z,1006.13
2018-05-14T04:57:50.062Z,1006.09
2018-05-14T04:58:58.702Z,1006.16
2018-05-14T05:00:07.349Z,1006.15
2018-05-14T05:01:15.985Z,1006.18
2018-05-14T05:02:24.634Z,1006.15
2018-05-14T05:03:33.282Z,1006.2
2018-05-14T05:04:41.931Z,1006.15
2018-05-14T05:05:50.842Z,1006.13
2018-05-14T05:06:59.478Z,1006.17
2018-05-14T05:08:08.126Z,1006.16
2018-05-14T05:09:16.767Z,1006.18
2018-05-14T05:10:25.444Z,1006.16
2018-05-14T05:11:34.116Z,1006.18
2018-05-14T05:12:42.710Z,1006.17
2018-05-14T05:13:51.350Z,1006.16
2018-05-14T05:15:00.270Z,1006.16
2018-05-14T05:16:08.907Z,1006.16
2018-05-14T05:17:17.555Z,1006.15
2018-05-14T05:18:26.197Z,1006.15
2018-05-14T05:19:34.854Z,1006.18
2018-05-14T05:20:43.761Z,1006.2
2018-05-14T05:21:52.402Z,1006.16
2018-05-14T05:23:01.047Z,1006.23
2018-05-14T05:24:09.691Z,1006.18
2018-05-14T05:25:18.347Z,1006.2
2018-05-14T05:26:26.991Z,1006.17
2018-05-14T05:27:35.908Z,1006.24
2018-05-14T05:28:44.549Z,1006.23
2018-05-14T05:29:53.735Z,1006.21
2018-05-14T05:31:02.651Z,1006.22
2018-05-14T05:32:11.296Z,1006.23
2018-05-14T05:33:19.933Z,1006.25
2018-05-14T05:34:28.633Z,1006.27
2018-05-14T05:35:37.236Z,1006.28
2018-05-14T05:36:45.878Z,1006.31
2018-05-14T05:37:54.579Z,1006.33
2018-05-14T05:39:03.169Z,1006.32
2018-05-14T05:40:12.082Z,1006.34
2018-05-14T05:41:21.260Z,1006.33
2018-05-14T05:42:29.908Z,1006.34
2018-05-14T05:43:38.810Z,1006.31
2018-05-14T05:44:47.461Z,1006.36
2018-05-14T05:45:56.097Z,1006.34
2018-05-14T05:47:04.752Z,1006.36
2018-05-14T05:48:13.393Z,1006.34
2018-05-14T05:49:22.039Z,1006.38
2018-05-14T05:50:30.689Z,1006.37
2018-05-14T05:51:39.341Z,1006.37
2018-05-14T05:52:48.247Z,1006.39
2018-05-14T05:53:56.895Z,1006.4
2018-05-14T05:55:05.806Z,1006.44
2018-05-14T05:56:14.451Z,1006.44
2018-05-14T05:57:23.364Z,1006.49
2018-05-14T05:58:32.016Z,1006.48
2018-05-14T05:59:41.193Z,1006.52
2018-05-14T06:00:49.836Z,1006.46
2018-05-14T06:01:58.750Z,1006.47
2018-05-14T06:03:07.397Z,1006.52
2018-05-14T06:04:16.059Z,1006.55
2018-05-14T06:05:24.699Z,1006.52
2018-05-14T06:06:33.351Z,1006.54
2018-05-14T06:07:41.997Z,1006.57
2018-05-14T06:08:50.644Z,1006.57
2018-05-14T06:09:59.284Z,1006.53
2018-05-14T06:11:08.203Z,1006.56
2018-05-14T06:12:16.851Z,1006.57
2018-05-14T06:13:25.499Z,1006.6
2018-05-14T06:14:34.138Z,1006.55
2018-05-14T06:15:42.787Z,1006.61
2018-05-14T06:16:51.438Z,1006.61
2018-05-14T06:18:00.086Z,1006.58
2018-05-14T06:19:08.733Z,1006.57
2018-05-14T06:20:17.902Z,1006.61
2018-05-14T06:21:26.552Z,1006.58
2018-05-14T06:22:35.463Z,1006.59
2018-05-14T06:23:44.113Z,1006.58
2018-05-14T06:24:53.030Z,1006.59
2018-05-14T06:26:01.680Z,1006.6
2018-05-14T06:27:10.321Z,1006.63
2018-05-14T06:28:18.973Z,1006.57
2018-05-14T06:29:27.612Z,1006.58
2018-05-14T06:30:36.265Z,1006.59
2018-05-14T06:31:44.907Z,1006.55
2018-05-14T06:32:53.556Z,1006.57
2018-05-14T06:34:02.468Z,1006.59
2018-05-14T06:35:11.111Z,1006.58
2018-05-14T06:36:20.033Z,1006.59
2018-05-14T06:37:28.688Z,1006.56
2018-05-14T06:38:37.329Z,1006.56
2018-05-14T06:39:45.973Z,1006.56
2018-05-14T06:40:54.617Z,1006.56
2018-05-14T06:42:03.260Z,1006.57
2018-05-14T06:43:11.910Z,1006.56
2018-05-14T06:44:20.654Z,1006.6
2018-05-14T06:45:29.491Z,1006.59
2018-05-14T06:46:38.143Z,1006.55
2018-05-14T06:47:46.784Z,1006.59
2018-05-14T06:48:55.430Z,1006.59
2018-05-14T06:50:04.076Z,1006.61
2018-05-14T06:51:12.727Z,1006.62
2018-05-14T06:52:21.376Z,1006.61
2018-05-14T06:53:30.026Z,1006.65
2018-05-14T06:54:38.933Z,1006.66
2018-05-14T06:55:47.575Z,1006.67
2018-05-14T06:56:56.227Z,1006.62
2018-05-14T06:58:04.875Z,1006.68
2018-05-14T06:59:13.530Z,1006.67
2018-05-14T07:00:22.161Z,1006.71
2018-05-14T07:01:30.812Z,1006.73
2018-05-14T07:02:39.461Z,1006.69
2018-05-14T07:03:48.127Z,1006.71
2018-05-14T07:04:57.061Z,1006.76
2018-05-14T07:06:05.723Z,1006.74
2018-05-14T07:07:14.363Z,1006.73
2018-05-14T07:08:23.013Z,1006.75
2018-05-14T07:09:31.655Z,1006.75
2018-05-14T07:10:40.305Z,1006.78
2018-05-14T07:11:48.960Z,1006.83
2018-05-14T07:12:57.871Z,1006.81
2018-05-14T07:14:06.531Z,1006.8
2018-05-14T07:15:15.174Z,1006.8
2018-05-14T07:16:23.859Z,1006.8
2018-05-14T07:17:32.527Z,1006.84
2018-05-14T07:18:41.192Z,1006.81
2018-05-14T07:19:49.841Z,1006.79
2018-05-14T07:20:58.752Z,1006.81
2018-05-14T07:22:07.405Z,1006.81
2018-05-14T07:23:16.323Z,1006.75
2018-05-14T07:24:25.390Z,1006.75
2018-05-14T07:25:34.399Z,1006.82
2018-05-14T07:26:43.108Z,1006.82
2018-05-14T07:27:52.322Z,1006.79
2018-05-14T07:29:01.138Z,1006.85
2018-05-14T07:30:09.955Z,1006.86
2018-05-14T07:31:18.982Z,1006.87
2018-05-14T07:32:27.717Z,1006.89
2018-05-14T07:33:37.002Z,1006.88
2018-05-14T07:34:45.692Z,1006.93
2018-05-14T07:35:54.378Z,1006.91
2018-05-14T07:37:03.279Z,1006.92
2018-05-14T07:38:12.203Z,1006.94
2018-05-14T07:39:20.852Z,1006.98
2018-05-14T07:40:29.529Z,1006.97
2018-05-14T07:41:38.833Z,1007.02
2018-05-14T07:42:47.765Z,1007.01
2018-05-14T07:43:56.682Z,1007.02
2018-05-14T07:45:05.592Z,1007.03
2018-05-14T07:46:14.763Z,1007.02
2018-05-14T07:47:23.453Z,1007.06
2018-05-14T07:48:32.701Z,1007.09
2018-05-14T07:49:41.699Z,1007.08
2018-05-14T07:50:50.348Z,1007.06
2018-05-14T07:51:59.040Z,1007.09
2018-05-14T07:53:08.077Z,1007.1
2018-05-14T07:54:17.105Z,1007.13
2018-05-14T07:55:26.187Z,1007.1
2018-05-14T07:56:35.087Z,1007.08
2018-05-14T07:57:43.739Z,1007.1
2018-05-14T07:58:52.652Z,1007.09
2018-05-14T08:00:01.310Z,1007.14
2018-05-14T08:01:09.950Z,1007.14
2018-05-14T08:02:18.603Z,1007.14
2018-05-14T08:03:27.517Z,1007.12
2018-05-14T08:04:36.171Z,1007.1
2018-05-14T08:05:44.821Z,1007.08
2018-05-14T08:06:53.463Z,1007.1
2018-05-14T08:08:02.108Z,1007.08
2018-05-14T08:09:11.032Z,1007.05
2018-05-14T08:10:19.707Z,1007.08
2018-05-14T08:11:28.350Z,1007.07
2018-05-14T08:12:37.661Z,1007.06
2018-05-14T08:13:46.298Z,1007.09
2018-05-14T08:14:54.956Z,1007.07
2018-05-14T08:16:03.601Z,1007.1
2018-05-14T08:17:12.252Z,1007.07
2018-05-14T08:18:20.894Z,1007.08
2018-05-14T08:19:29.554Z,1007.06
2018-05-14T08:20:38.198Z,1007.08
2018-05-14T08:21:46.849Z,1007.09
2018-05-14T08:22:55.488Z,1007.13
2018-05-14T08:24:04.148Z,1007.07
2018-05-14T08:25:12.803Z,1007.05
2018-05-14T08:26:21.531Z,1007.09
2018-05-14T08:27:30.101Z,1007.08
2018-05-14T08:28:38.739Z,1007.07
2018-05-14T08:29:47.393Z,1007.08
2018-05-14T08:30:56.036Z,1007.06
2018-05-14T08:32:04.712Z,1007.05
2018-05-14T08:33:13.353Z,1007.08
2018-05-14T08:34:22.005Z,1007.03
2018-05-14T08:35:30.652Z,1007.07
2018-05-14T08:36:39.308Z,1007.09
2018-05-14T08:37:47.947Z,1007.11
2018-05-14T08:38:56.865Z,1007.14
2018-05-14T08:40:05.774Z,1007.13
2018-05-14T08:41:14.441Z,1007.11
2018-05-14T08:42:23.134Z,1007.16
2018-05-14T08:43:32.070Z,1007.17
2018-05-14T08:44:40.968Z,1007.14
2018-05-14T08:45:49.616Z,1007.18
2018-05-14T08:46:58.269Z,1007.2
2018-05-14T08:48:06.931Z,1007.2
2018-05-14T08:49:15.564Z,1007.19
2018-05-14T08:50:24.210Z,1007.17
2018-05-14T08:51:32.863Z,1007.22
2018-05-14T08:52:41.515Z,1007.17
2018-05-14T08:53:50.485Z,1007.19
2018-05-14T08:54:59.137Z,1007.17
2018-05-14T08:56:07.790Z,1007.21
2018-05-14T08:57:16.439Z,1007.21
2018-05-14T08:58:25.089Z,1007.23
2018-05-14T08:59:33.735Z,1007.23
2018-05-14T09:00:42.462Z,1007.24
2018-05-14T09:01:51.041Z,1007.22
2018-05-14T09:02:59.686Z,1007.23
2018-05-14T09:04:08.339Z,1007.19
2018-05-14T09:05:16.990Z,1007.23
2018-05-14T09:06:25.915Z,1007.25
2018-05-14T09:07:34.566Z,1007.25
2018-05-14T09:08:43.240Z,1007.26
2018-05-14T09:09:52.166Z,1007.21
2018-05-14T09:11:00.816Z,1007.21
2018-05-14T09:12:09.465Z,1007.17
2018-05-14T09:13:18.117Z,1007.18
2018-05-14T09:14:26.764Z,1007.2
2018-05-14T09:15:35.423Z,1007.19
2018-05-14T09:16:44.070Z,1007.16
2018-05-14T09:17:52.722Z,1007.18
2018-05-14T09:19:01.644Z,1007.19
2018-05-14T09:20:10.295Z,1007.22
2018-05-14T09:21:18.945Z,1007.23
2018-05-14T09:22:27.584Z,1007.22
2018-05-14T09:23:36.233Z,1007.23
2018-05-14T09:24:44.884Z,1007.19
2018-05-14T09:25:53.536Z,1007.22
2018-05-14T09:27:02.453Z,1007.22
2018-05-14T09:28:11.105Z,1007.21
2018-05-14T09:29:19.755Z,1007.24
2018-05-14T09:30:28.668Z,1007.22
2018-05-14T09:31:37.318Z,1007.19
2018-05-14T09:32:45.971Z,1007.24
2018-05-14T09:33:54.617Z,1007.18
2018-05-14T09:35:03.270Z,1007.22
2018-05-14T09:36:11.913Z,1007.26
2018-05-14T09:37:20.622Z,1007.26
2018-05-14T09:38:29.231Z,1007.19
2018-05-14T09:39:37.894Z,1007.26
2018-05-14T09:40:46.809Z,1007.26
2018-05-14T09:41:55.453Z,1007.23
2018-05-14T09:43:04.384Z,1007.24
2018-05-14T09:44:13.031Z,1007.24
2018-05-14T09:45:21.690Z,1007.25
2018-05-14T09:46:30.332Z,1007.2
2018-05-14T09:47:38.986Z,1007.21
2018-05-14T09:48:47.903Z,1007.24
2018-05-14T09:49:56.822Z,1007.24
2018-05-14T09:51:05.581Z,1007.23
2018-05-14T09:52:14.196Z,1007.23
2018-05-14T09:53:23.111Z,1007.22
2018-05-14T09:54:31.770Z,1007.25
2018-05-14T09:55:40.692Z,1007.22
2018-05-14T09:56:49.343Z,1007.24
2018-05-14T09:57:57.988Z,1007.25
2018-05-14T09:59:06.636Z,1007.26
2018-05-14T10:00:15.568Z,1007.14
2018-05-14T10:01:24.216Z,1007.24
2018-05-14T10:02:32.914Z,1007.23
2018-05-14T10:03:41.646Z,1007.21
2018-05-14T10:04:50.168Z,1007.19
2018-05-14T10:05:58.817Z,1007.22
2018-05-14T10:07:07.471Z,1007.27
2018-05-14T10:08:16.108Z,1007.27
2018-05-14T10:09:25.032Z,1007.26
2018-05-14T10:10:33.676Z,1007.27
2018-05-14T10:11:42.331Z,1007.26
2018-05-14T10:12:50.973Z,1007.34
2018-05-14T10:13:59.966Z,1007.25
2018-05-14T10:15:08.618Z,1007.23
2018-05-14T10:16:17.276Z,1007.25
2018-05-14T10:17:25.923Z,1007.24
2018-05-14T10:18:34.564Z,1007.2
2018-05-14T10:19:43.223Z,1007.19
2018-05-14T10:20:51.872Z,1007.22
2018-05-14T10:22:00.537Z,1007.25
2018-05-14T10:23:09.174Z,1007.22
2018-05-14T10:24:17.828Z,1007.23
2018-05-14T10:25:26.474Z,1007.26
2018-05-14T10:26:35.136Z,1007.3
2018-05-14T10:27:43.776Z,1007.22
2018-05-14T10:28:52.431Z,1007.24
2018-05-14T10:30:01.078Z,1007.29
2018-05-14T10:31:09.739Z,1007.31
2018-05-14T10:32:18.387Z,1007.31
2018-05-14T10:33:27.034Z,1007.35
2018-05-14T10:34:35.683Z,1007.29
2018-05-14T10:35:44.336Z,1007.29
2018-05-14T10:36:52.996Z,1007.3
2018-05-14T10:38:01.641Z,1007.33
2018-05-14T10:39:10.296Z,1007.37
2018-05-14T10:40:19.198Z,1007.32
2018-05-14T10:41:28.376Z,1007.3
2018-05-14T10:42:37.036Z,1007.29
2018-05-14T10:43:45.678Z,1007.32
2018-05-14T10:44:54.338Z,1007.31
2018-05-14T10:46:03.252Z,1007.35
2018-05-14T10:47:11.900Z,1007.36
2018-05-14T10:48:20.552Z,1007.34
2018-05-14T10:49:29.738Z,1007.38
2018-05-14T10:50:38.389Z,1007.4
2018-05-14T10:51:47.036Z,1007.36
2018-05-14T10:52:55.732Z,1007.36
2018-05-14T10:54:04.334Z,1007.44
2018-05-14T10:55:12.992Z,1007.4
2018-05-14T10:56:21.640Z,1007.41
2018-05-14T10:57:30.295Z,1007.42
2018-05-14T10:58:39.010Z,1007.41
2018-05-14T10:59:47.597Z,1007.41
2018-05-14T11:00:56.246Z,1007.42
2018-05-14T11:02:04.900Z,1007.43
2018-05-14T11:03:13.542Z,1007.41
2018-05-14T11:04:22.201Z,1007.41
2018-05-14T11:05:30.849Z,1007.46
2018-05-14T11:06:39.508Z,1007.45
2018-05-14T11:07:48.421Z,1007.42
2018-05-14T11:08:57.339Z,1007.4
2018-05-14T11:10:05.995Z,1007.4
2018-05-14T11:11:14.651Z,1007.39
2018-05-14T11:12:23.297Z,1007.38
2018-05-14T11:13:31.940Z,1007.41
2018-05-14T11:14:40.594Z,1007.35
2018-05-14T11:15:49.241Z,1007.38
2018-05-14T11:16:57.908Z,1007.37
2018-05-14T11:18:06.819Z,1007.4
2018-05-14T11:19:15.474Z,1007.33
2018-05-14T11:20:24.122Z,1007.34
2018-05-14T11:21:32.782Z,1007.38
2018-05-14T11:22:41.425Z,1007.33
2018-05-14T11:23:50.083Z,1007.38
2018-05-14T11:24:58.737Z,1007.34
2018-05-14T11:26:07.398Z,1007.34
2018-05-14T11:27:16.047Z,1007.29
2018-05-14T11:28:24.694Z,1007.34
2018-05-14T11:29:33.350Z,1007.42
2018-05-14T11:30:41.997Z,1007.36
2018-05-14T11:31:50.658Z,1007.32
2018-05-14T11:32:59.307Z,1007.34
2018-05-14T11:34:07.969Z,1007.36
2018-05-14T11:35:16.697Z,1007.3
2018-05-14T11:36:25.270Z,1007.41
2018-05-14T11:37:33.950Z,1007.29
2018-05-14T11:38:42.604Z,1007.36
2018-05-14T11:39:51.249Z,1007.37
2018-05-14T11:41:00.174Z,1007.34
2018-05-14T11:42:08.824Z,1007.34
2018-05-14T11:43:17.744Z,1007.4
2018-05-14T11:44:26.662Z,1007.4
2018-05-14T11:45:35.320Z,1007.31
2018-05-14T11:46:43.969Z,1007.37
2018-05-14T11:47:52.624Z,1007.41
2018-05-14T11:49:01.282Z,1007.39
2018-05-14T11:50:10.190Z,1007.42
2018-05-14T11:51:18.848Z,1007.41
2018-05-14T11:52:27.762Z,1007.38
2018-05-14T11:53:36.419Z,1007.36
2018-05-14T11:54:45.071Z,1007.42
2018-05-14T11:55:53.990Z,1007.36
2018-05-14T11:57:02.641Z,1007.41
2018-05-14T11:58:11.298Z,1007.47
2018-05-14T11:59:19.947Z,1007.36
2018-05-14T12:00:28.603Z,1007.34
2018-05-14T12:01:37.252Z,1007.33
2018-05-14T12:02:45.930Z,1007.36
2018-05-14T12:03:55.262Z,1007.34
2018-05-14T12:05:03.913Z,1007.39
2018-05-14T12:06:12.565Z,1007.4
2018-05-14T12:07:21.478Z,1007.39
2018-05-14T12:08:30.138Z,1007.39
2018-05-14T12:09:38.791Z,1007.45
2018-05-14T12:10:47.712Z,1007.36
2018-05-14T12:11:56.358Z,1007.37
2018-05-14T12:13:05.345Z,1007.31
2018-05-14T12:14:13.996Z,1007.38
2018-05-14T12:15:22.650Z,1007.32
2018-05-14T12:16:31.306Z,1007.35
2018-05-14T12:17:39.954Z,1007.36
2018-05-14T12:18:48.605Z,1007.39
2018-05-14T12:19:57.260Z,1007.38
2018-05-14T12:21:05.912Z,1007.36
2018-05-14T12:22:14.564Z,1007.34
2018-05-14T12:23:23.217Z,1007.35
2018-05-14T12:24:31.871Z,1007.28
2018-05-14T12:25:40.614Z,1007.33
2018-05-14T12:26:49.179Z,1007.38
2018-05-14T12:27:57.831Z,1007.37
2018-05-14T12:29:06.484Z,1007.38
2018-05-14T12:30:15.149Z,1007.36
2018-05-14T12:31:24.076Z,1007.39
2018-05-14T12:32:32.728Z,1007.39
2018-05-14T12:33:41.385Z,1007.39
2018-05-14T12:34:50.039Z,1007.36
2018-05-14T12:35:58.686Z,1007.34
2018-05-14T12:37:07.342Z,1007.36
2018-05-14T12:38:15.993Z,1007.33
2018-05-14T12:39:24.656Z,1007.31
2018-05-14T12:40:33.303Z,1007.33
2018-05-14T12:41:41.958Z,1007.33
2018-05-14T12:42:50.610Z,1007.36
2018-05-14T12:43:59.260Z,1007.34
2018-05-14T12:45:08.197Z,1007.34
2018-05-14T12:46:16.847Z,1007.32
2018-05-14T12:47:25.504Z,1007.36
2018-05-14T12:48:34.151Z,1007.33
2018-05-14T12:49:42.810Z,1007.29
2018-05-14T12:50:51.526Z,1007.35
2018-05-14T12:52:00.173Z,1007.34
2018-05-14T12:53:08.764Z,1007.27
2018-05-14T12:54:17.423Z,1007.26
2018-05-14T12:55:26.075Z,1007.28
2018-05-14T12:56:34.729Z,1007.28
2018-05-14T12:57:43.378Z,1007.26
2018-05-14T12:58:52.037Z,1007.22
2018-05-14T13:00:00.693Z,1007.25
2018-05-14T13:01:09.348Z,1007.24
2018-05-14T13:02:18.004Z,1007.19
2018-05-14T13:03:26.651Z,1007.23
2018-05-14T13:04:35.563Z,1007.16
2018-05-14T13:05:44.225Z,1007.19
2018-05-14T13:06:53.236Z,1007.19
2018-05-14T13:08:02.168Z,1007.19
2018-05-14T13:09:10.815Z,1007.17
2018-05-14T13:10:19.471Z,1007.19
2018-05-14T13:11:28.128Z,1007.16
2018-05-14T13:12:37.049Z,1007.24
2018-05-14T13:13:45.704Z,1007.21
2018-05-14T13:14:54.355Z,1007.17
2018-05-14T13:16:03.026Z,1007.24
2018-05-14T13:17:11.673Z,1007.27
2018-05-14T13:18:20.328Z,1007.26
2018-05-14T13:19:29.252Z,1007.23
2018-05-14T13:20:37.899Z,1007.24
2018-05-14T13:21:46.557Z,1007.18
2018-05-14T13:22:55.209Z,1007.25
2018-05-14T13:24:03.860Z,1007.23
2018-05-14T13:25:12.511Z,1007.25
2018-05-14T13:26:21.292Z,1007.22
2018-05-14T13:27:29.822Z,1007.23
2018-05-14T13:28:38.473Z,1007.2
2018-05-14T13:29:47.123Z,1007.24
2018-05-14T13:30:56.044Z,1007.27
2018-05-14T13:32:04.754Z,1007.22
2018-05-14T13:33:13.351Z,1007.23
2018-05-14T13:34:22.000Z,1007.28
2018-05-14T13:35:30.922Z,1007.3
2018-05-14T13:36:39.578Z,1007.3
2018-05-14T13:37:48.338Z,1007.27
2018-05-14T13:38:56.895Z,1007.29
2018-05-14T13:40:05.806Z,1007.29
2018-05-14T13:41:14.463Z,1007.3
2018-05-14T13:42:23.116Z,1007.25
2018-05-14T13:43:31.772Z,1007.29
2018-05-14T13:44:40.417Z,1007.2
2018-05-14T13:45:49.074Z,1007.36
2018-05-14T13:46:57.784Z,1007.26
2018-05-14T13:48:06.535Z,1007.28
2018-05-14T13:49:15.175Z,1007.27
2018-05-14T13:50:23.832Z,1007.36
2018-05-14T13:51:32.483Z,1007.28
2018-05-14T13:52:41.148Z,1007.32
2018-05-14T13:53:49.797Z,1007.35